Time;durP1;ratioP1;P1;durP2;ratioP2;P2;SDS_P1;SDS_P2;PMS_P1;PMS_P2;Temp;Humidity;BMP_temperature;BMP_pressure;BME280_temperature;BME280_humidity;BME280_pressure;Samples;Min_cycle;Max_cycle;Signal;HPM_P1;HPM_P2
2021/08/22 00:00:01;;;;;;;;;;;;;;;15.82;80.61;99907.00;5132258;28;809;-60
2021/08/22 00:02:27;;;;;;;;;;;;;;;15.87;80.66;99909.25;5132008;28;882;-60
2021/08/22 00:04:55;;;;;;;;;;;;;;;15.88;80.48;99906.06;5132135;28;790;-59
2021/08/22 00:07:21;;;;;;;;;;;;;;;15.91;80.37;99904.38;5132052;28;806;-60
2021/08/22 00:09:48;;;;;;;;;;;;;;;15.91;80.52;99905.16;5132228;28;889;-60
2021/08/22 00:12:15;;;;;;;;;;;;;;;15.89;80.45;99904.03;5132066;28;825;-60
2021/08/22 00:14:42;;;;;;;;;;;;;;;15.86;80.28;99904.94;5132050;28;837;-60
2021/08/22 00:17:08;;;;;;;;;;;;;;;15.86;80.20;99910.50;5131784;28;1905;-60
2021/08/22 00:19:35;;;;;;;;;;;;;;;15.86;80.03;99900.13;5132005;28;786;-60
2021/08/22 00:22:01;;;;;;;;;;;;;;;15.81;80.09;99900.66;5132137;28;872;-60
2021/08/22 00:24:28;;;;;;;;;;;;;;;15.78;80.13;99900.75;5133632;27;842;-60
2021/08/22 00:26:53;;;;;;;;;;;;;;;15.74;79.95;99894.47;5135620;27;833;-60
2021/08/22 00:29:20;;;;;;;;;;;;;;;15.69;80.13;99895.75;5135572;27;905;-60
2021/08/22 00:31:47;;;;;;;;;;;;;;;15.70;79.97;99902.88;5135657;27;889;-60
2021/08/22 00:34:14;;;;;;;;;;;;;;;15.70;79.87;99894.53;5135480;27;814;-60
2021/08/22 00:36:40;;;;;;;;;;;;;;;15.66;80.00;99900.19;5135404;27;1886;-60
2021/08/22 00:39:07;;;;;;;;;;;;;;;15.64;79.94;99896.25;5135376;27;961;-60
2021/08/22 00:41:33;;;;;;;;;;;;;;;15.62;79.79;99893.94;5135395;27;912;-60
2021/08/22 00:44:00;;;;;;;;;;;;;;;15.64;79.64;99896.25;5135281;27;865;-60
2021/08/22 00:46:26;;;;;;;;;;;;;;;15.67;79.30;99898.19;5135293;27;802;-60
2021/08/22 00:48:53;;;;;;;;;;;;;;;15.67;79.22;99889.84;5135193;27;794;-60
2021/08/22 00:51:19;;;;;;;;;;;;;;;15.68;79.24;99892.19;5135438;27;802;-59
2021/08/22 00:53:46;;;;;;;;;;;;;;;15.70;79.18;99889.75;5135197;27;845;-60
2021/08/22 00:56:14;;;;;;;;;;;;;;;15.70;79.12;99894.53;5134876;27;1885;-60
2021/08/22 00:58:40;;;;;;;;;;;;;;;15.68;79.31;99891.38;5135048;27;821;-60
2021/08/22 01:01:12;;;;;;;;;;;;;;;15.66;79.23;99886.28;5134941;27;896;-60
2021/08/22 01:03:46;;;;;;;;;;;;;;;15.64;79.36;99891.50;5135197;27;838;-60
2021/08/22 01:06:22;;;;;;;;;;;;;;;15.65;79.19;99898.63;5135135;27;806;-60
2021/08/22 01:09:13;;;;;;;;;;;;;;;15.67;79.22;99895.41;5134876;27;794;-59
2021/08/22 01:11:41;;;;;;;;;;;;;;;15.63;79.13;99887.13;5103349;27;1155;-60
2021/08/22 01:14:16;;;;;;;;;;;;;;;15.57;79.14;99886.06;5134646;27;922;-60
2021/08/22 01:16:49;;;;;;;;;;;;;;;15.48;79.06;99889.47;5134498;27;1906;-60
2021/08/22 01:19:25;;;;;;;;;;;;;;;15.43;78.98;99883.66;5134681;27;874;-59
2021/08/22 01:21:53;;;;;;;;;;;;;;;15.35;79.28;99890.59;5116204;27;1405;-60
2021/08/22 01:24:20;;;;;;;;;;;;;;;15.28;79.37;99883.19;5134485;27;882;-60
2021/08/22 01:26:47;;;;;;;;;;;;;;;15.27;79.40;99887.19;5134727;27;815;-59
2021/08/22 01:29:15;;;;;;;;;;;;;;;15.30;79.94;99891.91;5134441;27;802;-60
2021/08/22 01:31:45;;;;;;;;;;;;;;;15.37;79.73;99888.16;5134451;27;830;-60
2021/08/22 01:34:13;;;;;;;;;;;;;;;15.38;79.96;99887.72;5116554;27;880;-60
2021/08/22 01:36:40;;;;;;;;;;;;;;;15.41;79.92;99889.66;5134490;27;893;-60
2021/08/22 01:39:08;;;;;;;;;;;;;;;15.44;80.07;99888.75;5134340;27;853;-60
2021/08/22 01:41:35;;;;;;;;;;;;;;;15.45;80.30;99889.56;5134186;27;867;-60
2021/08/22 01:44:02;;;;;;;;;;;;;;;15.45;80.22;99889.56;5134176;27;892;-60
2021/08/22 01:46:30;;;;;;;;;;;;;;;15.42;80.18;99887.63;5134147;27;1945;-60
2021/08/22 01:48:57;;;;;;;;;;;;;;;15.41;80.10;99888.88;5134221;27;847;-60
2021/08/22 01:51:25;;;;;;;;;;;;;;;15.40;80.18;99895.63;5134087;27;888;-60
2021/08/22 01:53:52;;;;;;;;;;;;;;;15.43;80.28;99890.00;5133841;27;812;-60
2021/08/22 01:56:18;;;;;;;;;;;;;;;15.46;80.32;99888.34;5133907;27;798;-60
2021/08/22 01:58:44;;;;;;;;;;;;;;;15.50;80.01;99883.47;5134002;27;884;-60
2021/08/22 02:01:12;;;;;;;;;;;;;;;15.51;80.00;99888.63;5133926;27;881;-60
2021/08/22 02:03:43;;;;;;;;;;;;;;;15.49;80.02;99893.84;5134064;27;865;-60
2021/08/22 02:06:16;;;;;;;;;;;;;;;15.45;80.07;99886.78;5133635;27;1885;-59
2021/08/22 02:08:43;;;;;;;;;;;;;;;15.36;80.04;99895.72;5133670;27;829;-60
2021/08/22 02:11:36;;;;;;;;;;;;;;;15.32;80.12;99889.47;5133522;27;806;-59
2021/08/22 02:14:05;;;;;;;;;;;;;;;15.30;80.35;99889.13;5130187;27;1732;-59
2021/08/22 02:16:34;;;;;;;;;;;;;;;15.24;79.92;99890.84;5133598;27;1207;-60
2021/08/22 02:19:01;;;;;;;;;;;;;;;15.11;80.24;99888.72;5133768;27;869;-60
2021/08/22 02:21:26;;;;;;;;;;;;;;;15.00;80.60;99879.84;5133733;27;857;-59
2021/08/22 02:23:54;;;;;;;;;;;;;;;14.93;80.77;99884.75;5134031;27;723;-60
2021/08/22 02:26:22;;;;;;;;;;;;;;;14.85;80.68;99882.13;5133466;27;1963;-60
2021/08/22 02:28:56;;;;;;;;;;;;;;;14.81;80.75;99884.22;5133462;27;826;-60
2021/08/22 02:31:22;;;;;;;;;;;;;;;14.75;80.77;99885.91;5133276;27;926;-60
2021/08/22 02:33:48;;;;;;;;;;;;;;;14.71;80.87;99890.78;5133044;27;893;-60
2021/08/22 02:36:15;;;;;;;;;;;;;;;14.71;80.58;99888.00;5133509;27;818;-59
2021/08/22 02:38:42;;;;;;;;;;;;;;;14.64;80.87;99879.78;5133132;27;818;-60
2021/08/22 02:41:08;;;;;;;;;;;;;;;14.60;80.73;99879.09;5133114;27;818;-59
2021/08/22 02:43:35;;;;;;;;;;;;;;;14.59;80.92;99881.06;5132974;27;802;-60
2021/08/22 02:46:02;;;;;;;;;;;;;;;14.62;80.87;99879.44;5132878;27;1885;-60
2021/08/22 02:48:28;;;;;;;;;;;;;;;14.64;81.10;99874.22;5132582;27;903;-60
2021/08/22 02:50:55;;;;;;;;;;;;;;;14.54;81.22;99872.41;5133017;27;881;-59
2021/08/22 02:53:21;;;;;;;;;;;;;;;14.47;81.45;99871.34;5132896;27;814;-60
2021/08/22 02:55:48;;;;;;;;;;;;;;;14.52;81.79;99874.84;5132848;27;882;-60
2021/08/22 02:58:15;;;;;;;;;;;;;;;14.65;81.42;99870.22;5132811;27;826;-60
2021/08/22 03:00:41;;;;;;;;;;;;;;;14.72;81.29;99872.84;5132779;27;889;-60
2021/08/22 03:03:08;;;;;;;;;;;;;;;14.82;81.38;99871.06;5132782;27;791;-60
2021/08/22 03:05:35;;;;;;;;;;;;;;;14.90;81.05;99870.47;5132739;27;865;-60
2021/08/22 03:08:01;;;;;;;;;;;;;;;14.99;81.01;99871.91;5132732;27;1893;-60
2021/08/22 03:10:28;;;;;;;;;;;;;;;15.01;80.83;99863.91;5132695;27;838;-59
2021/08/22 03:12:55;;;;;;;;;;;;;;;15.04;81.01;99874.16;5132884;27;817;-60
2021/08/22 03:15:21;;;;;;;;;;;;;;;15.03;80.79;99876.16;5132821;27;895;-60
2021/08/22 03:17:48;;;;;;;;;;;;;;;15.02;81.03;99874.63;5132550;27;1449;-59
2021/08/22 03:20:16;;;;;;;;;;;;;;;15.02;80.78;99871.03;5132770;28;814;-59
2021/08/22 03:22:43;;;;;;;;;;;;;;;15.00;80.76;99870.69;5132797;28;901;-60
2021/08/22 03:25:10;;;;;;;;;;;;;;;14.98;80.61;99878.66;5132671;28;849;-60
2021/08/22 03:27:37;;;;;;;;;;;;;;;14.96;80.72;99876.34;5114002;28;2185;-59
2021/08/22 03:30:04;;;;;;;;;;;;;;;14.89;80.68;99877.28;5133006;28;857;-60
2021/08/22 03:32:31;;;;;;;;;;;;;;;14.90;80.57;99884.41;5132673;28;884;-59
2021/08/22 03:34:57;;;;;;;;;;;;;;;14.93;80.59;99884.75;5132593;28;854;-60
2021/08/22 03:37:24;;;;;;;;;;;;;;;14.94;80.41;99881.53;5132666;28;798;-60
2021/08/22 03:39:51;;;;;;;;;;;;;;;14.97;80.30;99886.25;5132645;28;789;-60
2021/08/22 03:42:17;;;;;;;;;;;;;;;14.97;80.09;99886.25;5132528;28;813;-59
2021/08/22 03:44:44;;;;;;;;;;;;;;;14.95;80.16;99880.31;5133045;28;801;-59
2021/08/22 03:47:11;;;;;;;;;;;;;;;14.95;80.04;99887.88;5132277;28;1889;-59
2021/08/22 03:49:37;;;;;;;;;;;;;;;14.97;80.18;99894.59;5132978;28;766;-60
2021/08/22 03:52:04;;;;;;;;;;;;;;;14.97;79.97;99886.25;5132415;28;809;-59
2021/08/22 03:54:31;;;;;;;;;;;;;;;14.97;79.97;99885.47;5132470;28;822;-59
2021/08/22 03:56:58;;;;;;;;;;;;;;;14.98;79.93;99887.81;5132162;28;942;-60
2021/08/22 03:59:24;;;;;;;;;;;;;;;15.07;79.74;99890.78;5133893;27;814;-59
2021/08/22 04:01:51;;;;;;;;;;;;;;;15.16;79.57;99890.19;5136171;27;869;-60
2021/08/22 04:04:17;;;;;;;;;;;;;;;15.24;79.39;99885.28;5136024;27;790;-59
2021/08/22 04:06:48;;;;;;;;;;;;;;;15.34;78.96;99887.03;5136039;27;1889;-59
2021/08/22 04:09:17;;;;;;;;;;;;;;;15.48;78.55;99886.69;5136274;27;814;-59
2021/08/22 04:11:44;;;;;;;;;;;;;;;15.60;78.37;99887.22;5136068;27;904;-60
2021/08/22 04:14:11;;;;;;;;;;;;;;;15.75;77.93;99896.06;5117432;27;1497;-59
2021/08/22 04:16:38;;;;;;;;;;;;;;;15.88;77.53;99894.13;5135679;27;1218;-60
2021/08/22 04:19:04;;;;;;;;;;;;;;;15.95;77.10;99896.72;5135905;27;826;-59
2021/08/22 04:21:33;;;;;;;;;;;;;;;16.03;77.11;99900.91;5135832;27;782;-60
2021/08/22 04:24:00;;;;;;;;;;;;;;;16.09;76.63;99901.94;5135766;27;857;-59
2021/08/22 04:26:27;;;;;;;;;;;;;;;16.13;76.69;99904.66;5135565;27;2001;-59
2021/08/22 04:28:53;;;;;;;;;;;;;;;16.17;76.52;99896.16;5135650;27;841;-59
2021/08/22 04:31:20;;;;;;;;;;;;;;;16.24;76.52;99901.56;5135646;27;794;-60
2021/08/22 04:33:47;;;;;;;;;;;;;;;16.32;76.21;99897.34;5135850;27;818;-59
2021/08/22 04:36:14;;;;;;;;;;;;;;;16.44;75.99;99896.63;5135507;27;862;-59
2021/08/22 04:38:40;;;;;;;;;;;;;;;16.57;75.60;99898.69;5135525;27;888;-59
2021/08/22 04:41:07;;;;;;;;;;;;;;;16.70;75.41;99908.66;5135437;27;829;-59
2021/08/22 04:43:34;;;;;;;;;;;;;;;16.90;75.10;99902.16;5135750;27;896;-59
2021/08/22 04:46:00;;;;;;;;;;;;;;;17.14;74.36;99894.25;5135384;27;912;-59
2021/08/22 04:48:27;;;;;;;;;;;;;;;17.38;73.93;99893.94;5135714;27;1947;-59
2021/08/22 04:50:54;;;;;;;;;;;;;;;17.62;73.29;99903.50;5135462;27;822;-60
2021/08/22 04:53:21;;;;;;;;;;;;;;;17.89;72.78;99902.28;5135731;27;826;-60
2021/08/22 04:55:48;;;;;;;;;;;;;;;18.13;71.95;99900.66;5135259;27;842;-59
2021/08/22 04:58:15;;;;;;;;;;;;;;;18.36;71.07;99899.47;5135334;27;869;-60
2021/08/22 05:00:42;;;;;;;;;;;;;;;18.57;70.62;99897.91;5135255;27;849;-59
2021/08/22 05:03:08;;;;;;;;;;;;;;;18.76;69.90;99904.44;5135227;27;874;-59
2021/08/22 05:05:35;;;;;;;;;;;;;;;18.93;69.00;99901.47;5135063;27;825;-59
2021/08/22 05:08:01;;;;;;;;;;;;;;;19.12;68.52;99908.72;5135407;27;1906;-60
2021/08/22 05:15:40;;;;;;;;;;;;;;;19.83;66.82;99918.34;5671870;22;1510;-60
2021/08/22 05:18:07;;;;;;;;;;;;;;;20.15;66.31;99924.66;5033724;28;889;-60
2021/08/22 05:20:33;;;;;;;;;;;;;;;20.52;64.14;99916.25;5033689;28;864;-60
2021/08/22 05:23:00;;;;;;;;;;;;;;;20.95;61.91;99923.56;5033547;28;865;-60
2021/08/22 05:25:26;;;;;;;;;;;;;;;21.69;58.63;99912.06;5033628;28;814;-60
2021/08/22 05:27:53;;;;;;;;;;;;;;;22.62;53.60;99904.56;5033337;28;1979;-60
2021/08/22 05:30:19;;;;;;;;;;;;;;;23.59;48.87;99906.94;5033665;28;845;-60
2021/08/22 05:32:47;;;;;;;;;;;;;;;24.47;47.10;99910.66;5033316;28;842;-60
2021/08/22 05:35:13;;;;;;;;;;;;;;;25.13;45.88;99911.84;5033394;28;849;-60
2021/08/22 05:37:40;;;;;;;;;;;;;;;25.50;43.13;99921.69;5033302;28;908;-60
2021/08/22 05:40:07;;;;;;;;;;;;;;;25.67;41.52;99911.28;5033303;28;841;-60
2021/08/22 05:42:33;;;;;;;;;;;;;;;25.69;41.81;99911.53;5033186;28;881;-61
2021/08/22 05:45:00;;;;;;;;;;;;;;;25.63;41.31;99913.56;5033105;28;878;-60
2021/08/22 05:47:27;;;;;;;;;;;;;;;25.64;41.47;99915.09;5033321;28;1957;-60
2021/08/22 05:49:53;;;;;;;;;;;;;;;25.93;40.54;99913.25;5033064;28;825;-60
2021/08/22 05:52:20;;;;;;;;;;;;;;;26.46;39.45;99914.50;5032943;28;794;-61
2021/08/22 05:54:47;;;;;;;;;;;;;;;27.03;38.67;99915.38;5032997;28;881;-60
2021/08/22 05:57:13;;;;;;;;;;;;;;;27.81;37.44;99920.25;5032895;28;808;-60
2021/08/22 05:59:40;;;;;;;;;;;;;;;28.76;35.52;99914.72;5031624;28;1172;-60
2021/08/22 06:02:07;;;;;;;;;;;;;;;29.50;33.77;99912.84;5032962;28;1159;-61
2021/08/22 06:04:34;;;;;;;;;;;;;;;29.81;32.90;99919.28;5033110;28;799;-61
2021/08/22 06:07:01;;;;;;;;;;;;;;;30.13;33.03;99920.22;5032869;28;1976;-61
2021/08/22 06:09:30;;;;;;;;;;;;;;;30.09;32.10;99916.91;5032904;28;850;-61
2021/08/22 06:11:57;;;;;;;;;;;;;;;30.36;32.25;99922.78;5032609;28;826;-61
2021/08/22 06:14:24;;;;;;;;;;;;;;;30.62;31.11;99921.41;5032461;28;1109;-61
2021/08/22 06:16:51;;;;;;;;;;;;;;;30.82;31.34;99923.72;5032349;28;1253;-61
2021/08/22 06:19:18;;;;;;;;;;;;;;;30.92;30.53;99926.97;5032465;28;889;-61
2021/08/22 06:21:44;;;;;;;;;;;;;;;30.81;30.36;99922.19;5031737;28;826;-61
2021/08/22 06:24:11;;;;;;;;;;;;;;;30.95;30.88;99925.88;5032461;28;818;-61
2021/08/22 06:26:37;;;;;;;;;;;;;;;31.49;30.13;99927.63;5032310;28;1969;-61
2021/08/22 06:29:04;;;;;;;;;;;;;;;31.88;29.22;99922.50;5032419;28;834;-61
2021/08/22 06:31:31;;;;;;;;;;;;;;;32.11;29.49;99925.66;5031039;28;877;-62
2021/08/22 06:33:58;;;;;;;;;;;;;;;32.10;29.42;99927.78;5032372;28;807;-61
2021/08/22 06:36:25;;;;;;;;;;;;;;;32.39;28.71;99922.25;5032353;28;827;-62
2021/08/22 06:38:51;;;;;;;;;;;;;;;32.32;28.49;99932.25;5032668;28;802;-61
2021/08/22 06:41:17;;;;;;;;;;;;;;;32.50;28.24;99927.72;5032299;28;842;-63
2021/08/22 06:43:44;;;;;;;;;;;;;;;32.33;28.00;99930.16;5032739;28;822;-62
2021/08/22 06:46:11;;;;;;;;;;;;;;;32.09;29.00;99943.41;5031931;28;1883;-61
2021/08/22 06:48:38;;;;;;;;;;;;;;;32.18;28.72;99930.75;5030728;28;1399;-63
2021/08/22 06:51:04;;;;;;;;;;;;;;;32.17;28.84;99934.16;5032182;28;811;-62
2021/08/22 06:53:31;;;;;;;;;;;;;;;32.54;28.14;99936.00;5031931;28;813;-62
2021/08/22 06:55:58;;;;;;;;;;;;;;;32.51;28.21;99937.06;5031780;28;885;-61
2021/08/22 06:58:24;;;;;;;;;;;;;;;32.93;28.24;99940.03;5031838;28;870;-62
2021/08/22 07:00:51;;;;;;;;;;;;;;;33.16;27.50;99943.16;5031756;28;810;-61
2021/08/22 07:03:18;;;;;;;;;;;;;;;33.55;27.16;99939.28;5031788;28;869;-62
2021/08/22 07:05:45;;;;;;;;;;;;;;;33.67;26.95;99948.38;5032051;28;811;-61
2021/08/22 07:08:11;;;;;;;;;;;;;;;33.92;26.87;99950.84;5031646;28;1910;-61
2021/08/22 07:10:38;;;;;;;;;;;;;;;34.30;26.01;99945.34;5031705;28;790;-61
2021/08/22 07:13:05;;;;;;;;;;;;;;;34.20;25.61;99944.31;5031687;28;858;-62
2021/08/22 07:15:31;;;;;;;;;;;;;;;33.82;26.09;99950.59;5031502;28;1218;-61
2021/08/22 07:17:59;;;;;;;;;;;;;;;33.87;25.45;99948.91;5031643;28;870;-61
2021/08/22 07:20:25;;;;;;;;;;;;;;;33.78;25.73;99953.06;5031587;28;885;-61
2021/08/22 07:22:52;;;;;;;;;;;;;;;33.59;25.79;99961.09;5031613;28;842;-61
2021/08/22 07:25:20;;;;;;;;;;;;;;;33.68;25.92;99957.75;5031449;28;948;-61
2021/08/22 07:27:47;;;;;;;;;;;;;;;33.66;26.31;99955.44;5031319;28;1967;-61
2021/08/22 07:30:14;;;;;;;;;;;;;;;33.55;26.63;99961.44;5030212;28;1269;-61
2021/08/22 07:32:41;;;;;;;;;;;;;;;33.70;25.69;99958.72;5031943;28;845;-61
2021/08/22 07:35:08;;;;;;;;;;;;;;;33.87;25.77;99957.50;5035642;28;806;-62
2021/08/22 07:37:35;;;;;;;;;;;;;;;34.27;25.59;99949.34;5035427;28;896;-61
2021/08/22 07:40:02;;;;;;;;;;;;;;;34.67;25.13;99951.81;5035661;28;877;-62
2021/08/22 07:42:28;;;;;;;;;;;;;;;34.02;25.43;99957.59;5035299;28;802;-62
2021/08/22 07:44:55;;;;;;;;;;;;;;;33.61;25.60;99955.56;5035395;28;863;-61
2021/08/22 07:47:21;;;;;;;;;;;;;;;33.53;25.16;99955.50;5035206;28;1882;-61
2021/08/22 07:49:49;;;;;;;;;;;;;;;33.38;25.59;99953.28;5035354;28;811;-61
2021/08/22 07:52:15;;;;;;;;;;;;;;;33.58;25.80;99950.94;5035224;28;836;-61
2021/08/22 07:54:41;;;;;;;;;;;;;;;33.65;25.09;99964.59;5035230;28;826;-61
2021/08/22 07:57:08;;;;;;;;;;;;;;;33.66;25.17;99957.53;5035408;28;837;-61
2021/08/22 07:59:35;;;;;;;;;;;;;;;34.29;24.33;99963.09;5035051;28;810;-62
2021/08/22 08:02:02;;;;;;;;;;;;;;;34.08;24.07;99971.78;5035123;28;822;-62
2021/08/22 08:04:29;;;;;;;;;;;;;;;33.86;24.79;99964.56;5035043;28;865;-62
2021/08/22 08:06:54;;;;;;;;;;;;;;;34.18;24.46;99952.72;5035085;28;1886;-61
2021/08/22 08:09:21;;;;;;;;;;;;;;;34.45;24.23;99958.97;5034950;28;815;-62
2021/08/22 08:11:48;;;;;;;;;;;;;;;34.19;23.68;99960.00;5034887;28;1052;-62
2021/08/22 08:14:15;;;;;;;;;;;;;;;33.35;24.87;99960.09;5034776;28;846;-62
2021/08/22 08:16:41;;;;;;;;;;;;;;;33.55;24.83;99959.34;5034617;28;1223;-61
2021/08/22 08:19:08;;;;;;;;;;;;;;;33.10;25.29;99951.13;5034803;28;790;-61
2021/08/22 08:21:34;;;;;;;;;;;;;;;33.29;25.13;99950.91;5034702;28;775;-62
2021/08/22 08:24:01;;;;;;;;;;;;;;;33.37;25.21;99954.59;5034735;28;867;-61
2021/08/22 08:26:27;;;;;;;;;;;;;;;33.59;24.87;99943.91;5034526;28;1906;-62
2021/08/22 08:28:54;;;;;;;;;;;;;;;33.83;24.42;99951.34;5034692;28;893;-61
2021/08/22 08:31:20;;;;;;;;;;;;;;;33.56;24.79;99951.50;5034611;28;811;-61
2021/08/22 08:33:47;;;;;;;;;;;;;;;33.47;25.02;99949.16;5034497;28;847;-61
2021/08/22 08:36:14;;;;;;;;;;;;;;;33.57;24.85;99950.19;5034723;28;971;-61
2021/08/22 08:38:41;;;;;;;;;;;;;;;33.59;24.64;99941.81;5034434;28;900;-61
2021/08/22 08:41:07;;;;;;;;;;;;;;;33.38;25.53;99947.56;5034364;28;791;-62
2021/08/22 08:43:35;;;;;;;;;;;;;;;33.39;25.00;99937.63;5034180;28;838;-61
2021/08/22 08:46:02;;;;;;;;;;;;;;;33.66;24.28;99938.25;5033751;28;803;-62
2021/08/22 08:49:00;;;;;;;;;;;;;;;33.45;24.96;99940.34;5034124;28;1882;-62
2021/08/22 08:51:30;;;;;;;;;;;;;;;33.34;24.64;99944.25;5000704;28;1228;-62
2021/08/22 08:53:55;;;;;;;;;;;;;;;33.04;25.44;99925.44;5034351;28;803;-62
2021/08/22 08:56:29;;;;;;;;;;;;;;;33.30;25.85;99938.13;5034087;28;815;-62
2021/08/22 08:58:55;;;;;;;;;;;;;;;33.32;25.11;99924.78;5034056;28;803;-61
2021/08/22 09:01:22;;;;;;;;;;;;;;;33.42;25.50;99924.28;5033932;28;831;-61
2021/08/22 09:04:06;;;;;;;;;;;;;;;33.59;24.83;99929.59;5034012;28;837;-63
2021/08/22 09:06:52;;;;;;;;;;;;;;;33.24;24.58;99920.31;5034086;28;1936;-62
2021/08/22 09:09:28;;;;;;;;;;;;;;;32.93;24.85;99926.50;5034111;28;814;-61
2021/08/22 09:11:57;;;;;;;;;;;;;;;32.94;25.79;99921.53;5033753;28;810;-62
2021/08/22 09:14:29;;;;;;;;;;;;;;;32.48;25.10;99918.16;5033748;28;916;-63
2021/08/22 09:17:14;;;;;;;;;;;;;;;32.17;26.64;99922.72;5033390;28;1392;-63
2021/08/22 09:19:59;;;;;;;;;;;;;;;32.14;26.33;99916.00;5033807;28;810;-63
2021/08/22 09:22:43;;;;;;;;;;;;;;;32.13;26.50;99920.19;5033528;28;885;-61
2021/08/22 09:25:29;;;;;;;;;;;;;;;32.18;26.49;99895.66;5033546;28;905;-62
2021/08/22 09:28:14;;;;;;;;;;;;;;;32.44;27.02;99909.13;5033703;28;1909;-62
2021/08/22 09:30:58;;;;;;;;;;;;;;;32.42;26.28;99906.06;5033552;28;810;-62
2021/08/22 09:33:54;;;;;;;;;;;;;;;31.98;26.42;99902.78;5033330;28;834;-62
2021/08/22 09:36:56;;;;;;;;;;;;;;;31.52;27.63;99903.66;5033364;28;1177;-62
2021/08/22 09:39:25;;;;;;;;;;;;;;;31.77;27.93;99902.69;5033210;28;1856;-63
2021/08/22 09:42:12;;;;;;;;;;;;;;;31.92;28.32;99906.53;5033164;28;814;-61
2021/08/22 09:44:47;;;;;;;;;;;;;;;32.01;27.19;99898.88;5002648;28;1126;-62
2021/08/22 09:47:13;;;;;;;;;;;;;;;32.03;27.39;99893.34;5033044;28;1886;-62
2021/08/22 09:50:00;;;;;;;;;;;;;;;32.12;26.88;99902.25;5033246;28;786;-61
2021/08/22 09:52:39;;;;;;;;;;;;;;;32.59;27.11;99900.75;5033003;28;834;-62
2021/08/22 09:55:15;;;;;;;;;;;;;;;32.64;26.52;99902.72;5032992;28;814;-62
2021/08/22 09:58:00;;;;;;;;;;;;;;;32.73;27.02;99896.53;5031921;28;779;-61
2021/08/22 10:00:42;;;;;;;;;;;;;;;33.21;26.67;99893.56;5033116;28;814;-61
2021/08/22 10:03:27;;;;;;;;;;;;;;;33.26;26.13;99891.88;5033123;28;806;-62
2021/08/22 10:06:09;;;;;;;;;;;;;;;33.23;25.98;99890.91;5032725;28;850;-61
2021/08/22 10:08:34;;;;;;;;;;;;;;;33.44;25.93;99893.75;5032609;28;1949;-61
2021/08/22 10:11:02;;;;;;;;;;;;;;;33.68;26.30;99888.97;5032594;28;832;-62
2021/08/22 10:13:30;;;;;;;;;;;;;;;33.87;25.75;99886.59;5032691;28;798;-61
2021/08/22 10:15:57;;;;;;;;;;;;;;;33.84;26.17;99887.75;5032356;28;1265;-61
2021/08/22 10:18:24;;;;;;;;;;;;;;;33.31;25.66;99888.88;5032534;28;865;-61
2021/08/22 10:20:53;;;;;;;;;;;;;;;33.43;26.00;99888.56;5032496;28;795;-61
2021/08/22 10:23:38;;;;;;;;;;;;;;;33.23;25.87;99884.41;5032475;28;882;-61
2021/08/22 10:26:06;;;;;;;;;;;;;;;32.25;27.53;99881.47;5032346;28;889;-61
2021/08/22 10:28:49;;;;;;;;;;;;;;;32.49;27.84;99888.97;5032304;28;1914;-62
2021/08/22 10:31:36;;;;;;;;;;;;;;;33.25;26.61;99876.03;5032422;28;893;-63
2021/08/22 10:34:14;;;;;;;;;;;;;;;33.31;26.27;99885.25;5032403;28;1624;-62
2021/08/22 10:36:41;;;;;;;;;;;;;;;32.12;27.72;99890.06;5032207;28;790;-64
2021/08/22 10:39:26;;;;;;;;;;;;;;;31.26;28.66;99886.44;5032464;28;775;-63
2021/08/22 10:41:56;;;;;;;;;;;;;;;31.12;29.27;99889.28;5032153;28;916;-63
2021/08/22 10:44:35;;;;;;;;;;;;;;;30.82;29.49;99892.34;5032139;28;1004;-62
2021/08/22 10:47:03;;;;;;;;;;;;;;;30.59;30.06;99893.97;5031991;28;1972;-62
2021/08/22 10:49:48;;;;;;;;;;;;;;;30.55;30.38;99893.53;5032020;28;794;-61
2021/08/22 10:52:22;;;;;;;;;;;;;;;30.51;29.93;99890.97;5032186;28;842;-61
2021/08/22 10:55:07;;;;;;;;;;;;;;;30.69;29.99;99883.72;5031958;28;897;-61
2021/08/22 10:57:50;;;;;;;;;;;;;;;30.68;30.20;99888.66;5031936;28;830;-62
2021/08/22 11:00:45;;;;;;;;;;;;;;;30.56;30.22;99883.66;5032547;28;786;-62
2021/08/22 11:03:19;;;;;;;;;;;;;;;31.63;28.56;99881.94;5018680;28;934;-61
2021/08/22 11:05:46;;;;;;;;;;;;;;;32.24;27.72;99865.63;5031723;28;878;-61
2021/08/22 11:08:15;;;;;;;;;;;;;;;32.12;28.06;99870.06;5031413;28;2329;-61
2021/08/22 11:10:56;;;;;;;;;;;;;;;32.69;27.63;99866.69;5031577;28;866;-61
2021/08/22 11:13:22;;;;;;;;;;;;;;;33.37;26.20;99871.53;5031707;28;814;-61
2021/08/22 11:15:48;;;;;;;;;;;;;;;33.72;26.15;99866.47;5031613;28;1177;-61
2021/08/22 11:18:17;;;;;;;;;;;;;;;33.26;26.10;99869.72;5031548;28;1151;-61
2021/08/22 11:20:44;;;;;;;;;;;;;;;32.74;27.30;99872.31;5031602;28;924;-61
2021/08/22 11:23:23;;;;;;;;;;;;;;;32.47;26.80;99870.84;5031678;28;818;-61
2021/08/22 11:26:00;;;;;;;;;;;;;;;32.69;26.03;99855.25;5032318;28;806;-61
2021/08/22 11:28:27;;;;;;;;;;;;;;;33.65;24.86;99853.63;5031327;28;1914;-61
2021/08/22 11:30:54;;;;;;;;;;;;;;;34.38;24.60;99849.97;5031519;28;834;-61
2021/08/22 11:33:21;;;;;;;;;;;;;;;34.07;24.05;99856.31;5031525;28;842;-61
2021/08/22 11:35:48;;;;;;;;;;;;;;;33.52;25.31;99850.81;5031451;28;873;-62
2021/08/22 11:38:15;;;;;;;;;;;;;;;32.67;25.98;99858.69;5031463;28;905;-62
2021/08/22 11:40:43;;;;;;;;;;;;;;;32.08;26.39;99846.75;5031420;28;791;-62
2021/08/22 11:43:12;;;;;;;;;;;;;;;31.97;27.07;99846.97;5031374;28;846;-61
2021/08/22 11:45:41;;;;;;;;;;;;;;;31.87;27.51;99852.34;5031365;28;861;-61
2021/08/22 11:48:13;;;;;;;;;;;;;;;32.73;26.27;99849.97;5031271;28;1955;-62
2021/08/22 11:50:40;;;;;;;;;;;;;;;33.53;24.83;99846.63;5031192;28;854;-61
2021/08/22 11:53:09;;;;;;;;;;;;;;;34.48;24.73;99839.44;5031291;28;810;-62
2021/08/22 11:55:37;;;;;;;;;;;;;;;35.75;24.01;99828.38;5031514;28;846;-63
2021/08/22 11:58:09;;;;;;;;;;;;;;;36.41;22.63;99835.00;5031682;28;830;-63
2021/08/22 12:00:37;;;;;;;;;;;;;;;35.47;23.34;99844.50;5031177;28;802;-62
2021/08/22 12:03:04;;;;;;;;;;;;;;;34.20;24.30;99849.69;5031297;28;822;-62
2021/08/22 12:05:32;;;;;;;;;;;;;;;33.14;24.91;99846.38;5031139;28;880;-61
2021/08/22 12:08:09;;;;;;;;;;;;;;;32.51;25.42;99837.69;5031086;28;1890;-62
2021/08/22 12:10:37;;;;;;;;;;;;;;;32.58;25.83;99836.28;5031085;28;905;-61
2021/08/22 12:13:04;;;;;;;;;;;;;;;32.41;25.96;99838.72;5031057;28;869;-61
2021/08/22 12:15:35;;;;;;;;;;;;;;;33.46;25.61;99833.81;5031036;28;1170;-62
2021/08/22 12:18:20;;;;;;;;;;;;;;;34.63;23.98;99839.53;5031097;28;814;-62
2021/08/22 12:20:48;;;;;;;;;;;;;;;34.00;24.40;99834.09;5033254;28;870;-62
2021/08/22 12:23:15;;;;;;;;;;;;;;;32.87;25.72;99834.25;5035011;28;897;-62
2021/08/22 12:25:42;;;;;;;;;;;;;;;32.33;26.38;99828.00;5035124;28;807;-62
2021/08/22 12:28:20;;;;;;;;;;;;;;;32.90;26.11;99830.31;5034849;28;1910;-61
2021/08/22 12:30:49;;;;;;;;;;;;;;;34.23;24.23;99830.59;5034552;28;837;-62
2021/08/22 12:33:29;;;;;;;;;;;;;;;34.67;23.39;99822.66;5034781;28;851;-62
2021/08/22 12:36:06;;;;;;;;;;;;;;;33.97;23.41;99815.94;5034385;28;941;-61
2021/08/22 12:38:42;;;;;;;;;;;;;;;33.27;24.35;99816.88;5034656;28;811;-61
2021/08/22 12:41:43;;;;;;;;;;;;;;;32.51;25.65;99823.41;5034420;28;790;-62
2021/08/22 12:44:13;;;;;;;;;;;;;;;31.79;26.35;99822.91;5002066;28;1454;-61
2021/08/22 12:46:41;;;;;;;;;;;;;;;31.03;27.52;99826.91;5034430;28;1882;-61
2021/08/22 12:49:07;;;;;;;;;;;;;;;30.40;28.70;99826.31;5034244;28;787;-61
2021/08/22 12:51:37;;;;;;;;;;;;;;;30.02;29.59;99829.19;5034521;28;822;-61
2021/08/22 12:54:05;;;;;;;;;;;;;;;29.86;29.91;99830.16;5034415;28;834;-61
2021/08/22 12:56:32;;;;;;;;;;;;;;;29.85;30.01;99828.59;5034158;28;845;-61
2021/08/22 12:58:59;;;;;;;;;;;;;;;29.78;29.81;99820.66;5034154;28;806;-61
2021/08/22 13:01:26;;;;;;;;;;;;;;;29.97;29.37;99817.84;5034284;28;799;-61
2021/08/22 13:03:54;;;;;;;;;;;;;;;30.75;28.56;99815.94;5034002;28;853;-61
2021/08/22 13:06:21;;;;;;;;;;;;;;;31.80;27.24;99807.31;5033917;28;782;-61
2021/08/22 13:08:48;;;;;;;;;;;;;;;33.49;26.12;99800.41;5033748;28;1955;-62
2021/08/22 13:11:16;;;;;;;;;;;;;;;34.87;24.56;99805.88;5033868;28;811;-62
2021/08/22 13:13:43;;;;;;;;;;;;;;;35.85;23.43;99814.94;5033831;28;868;-63
2021/08/22 13:16:10;;;;;;;;;;;;;;;35.10;24.64;99817.31;5032187;28;1363;-63
2021/08/22 13:18:37;;;;;;;;;;;;;;;33.70;26.72;99823.28;5033748;28;802;-62
2021/08/22 13:21:05;;;;;;;;;;;;;;;32.55;28.25;99825.94;5033702;28;873;-62